sensor_id;sensor_type;location;lat;lon;timestamp;P1;durP1;ratioP1;P2;durP2;ratioP2
10985;SDS011;5546;48.714;8.738;2023-03-05T00:01:29;37.87;;;20.00;;
10985;SDS011;5546;48.714;8.738;2023-03-05T00:03:59;34.20;;;19.93;;
10985;SDS011;5546;48.714;8.738;2023-03-05T00:06:27;31.43;;;17.40;;
10985;SDS011;5546;48.714;8.738;2023-03-05T00:08:54;33.30;;;19.17;;
10985;SDS011;5546;48.714;8.738;2023-03-05T00:11:22;29.77;;;18.63;;
10985;SDS011;5546;48.714;8.738;2023-03-05T00:13:53;29.90;;;17.70;;
10985;SDS011;5546;48.714;8.738;2023-03-05T00:16:21;30.03;;;18.77;;
10985;SDS011;5546;48.714;8.738;2023-03-05T00:18:47;27.23;;;17.17;;
10985;SDS011;5546;48.714;8.738;2023-03-05T00:21:18;27.90;;;15.90;;
10985;SDS011;5546;48.714;8.738;2023-03-05T00:23:45;36.90;;;20.37;;
10985;SDS011;5546;48.714;8.738;2023-03-05T00:26:11;36.47;;;18.17;;
10985;SDS011;5546;48.714;8.738;2023-03-05T00:28:37;31.63;;;17.97;;
10985;SDS011;5546;48.714;8.738;2023-03-05T00:31:03;34.70;;;17.70;;
10985;SDS011;5546;48.714;8.738;2023-03-05T00:33:29;33.57;;;18.37;;
10985;SDS011;5546;48.714;8.738;2023-03-05T00:35:55;31.07;;;17.10;;
10985;SDS011;5546;48.714;8.738;2023-03-05T00:38:21;30.57;;;18.53;;
10985;SDS011;5546;48.714;8.738;2023-03-05T00:40:48;31.63;;;18.47;;
10985;SDS011;5546;48.714;8.738;2023-03-05T00:43:15;29.67;;;16.67;;
10985;SDS011;5546;48.714;8.738;2023-03-05T00:45:40;30.97;;;18.57;;
10985;SDS011;5546;48.714;8.738;2023-03-05T00:48:06;30.87;;;18.50;;
10985;SDS011;5546;48.714;8.738;2023-03-05T00:50:32;35.13;;;18.87;;
10985;SDS011;5546;48.714;8.738;2023-03-05T00:52:58;30.50;;;18.63;;
10985;SDS011;5546;48.714;8.738;2023-03-05T00:55:24;32.60;;;18.77;;
10985;SDS011;5546;48.714;8.738;2023-03-05T00:57:50;32.90;;;19.87;;
10985;SDS011;5546;48.714;8.738;2023-03-05T01:00:16;40.93;;;21.07;;
10985;SDS011;5546;48.714;8.738;2023-03-05T01:02:42;32.97;;;19.43;;
10985;SDS011;5546;48.714;8.738;2023-03-05T01:05:09;33.87;;;19.87;;
10985;SDS011;5546;48.714;8.738;2023-03-05T01:07:36;34.53;;;20.43;;
10985;SDS011;5546;48.714;8.738;2023-03-05T01:10:02;39.57;;;21.10;;
10985;SDS011;5546;48.714;8.738;2023-03-05T01:12:28;32.37;;;19.13;;
10985;SDS011;5546;48.714;8.738;2023-03-05T01:14:54;35.30;;;20.63;;
10985;SDS011;5546;48.714;8.738;2023-03-05T01:17:19;38.33;;;21.07;;
10985;SDS011;5546;48.714;8.738;2023-03-05T01:19:45;34.17;;;19.47;;
10985;SDS011;5546;48.714;8.738;2023-03-05T01:22:11;35.00;;;18.63;;
10985;SDS011;5546;48.714;8.738;2023-03-05T01:24:36;31.93;;;19.10;;
10985;SDS011;5546;48.714;8.738;2023-03-05T01:27:02;32.63;;;19.40;;
10985;SDS011;5546;48.714;8.738;2023-03-05T01:29:28;38.20;;;19.13;;
10985;SDS011;5546;48.714;8.738;2023-03-05T01:31:54;41.57;;;21.10;;
10985;SDS011;5546;48.714;8.738;2023-03-05T01:34:20;37.87;;;20.17;;
10985;SDS011;5546;48.714;8.738;2023-03-05T01:36:46;32.57;;;19.67;;
10985;SDS011;5546;48.714;8.738;2023-03-05T01:39:14;40.50;;;22.13;;
10985;SDS011;5546;48.714;8.738;2023-03-05T01:41:40;33.63;;;19.53;;
10985;SDS011;5546;48.714;8.738;2023-03-05T01:44:06;33.03;;;18.07;;
10985;SDS011;5546;48.714;8.738;2023-03-05T01:46:33;29.57;;;18.40;;
10985;SDS011;5546;48.714;8.738;2023-03-05T01:49:10;31.27;;;18.90;;
10985;SDS011;5546;48.714;8.738;2023-03-05T01:51:51;38.83;;;20.60;;
10985;SDS011;5546;48.714;8.738;2023-03-05T01:54:43;35.07;;;19.33;;
10985;SDS011;5546;48.714;8.738;2023-03-05T01:57:16;39.97;;;21.00;;
10985;SDS011;5546;48.714;8.738;2023-03-05T01:59:45;32.80;;;18.87;;
10985;SDS011;5546;48.714;8.738;2023-03-05T02:02:14;37.63;;;20.23;;
10985;SDS011;5546;48.714;8.738;2023-03-05T02:04:44;34.67;;;19.83;;
10985;SDS011;5546;48.714;8.738;2023-03-05T02:07:14;39.57;;;20.50;;
10985;SDS011;5546;48.714;8.738;2023-03-05T02:09:41;32.07;;;17.63;;
10985;SDS011;5546;48.714;8.738;2023-03-05T02:12:07;28.07;;;16.70;;
10985;SDS011;5546;48.714;8.738;2023-03-05T02:14:35;30.37;;;17.07;;
10985;SDS011;5546;48.714;8.738;2023-03-05T02:17:01;31.87;;;17.80;;
10985;SDS011;5546;48.714;8.738;2023-03-05T02:19:26;29.47;;;16.97;;
10985;SDS011;5546;48.714;8.738;2023-03-05T02:21:52;26.63;;;16.93;;
10985;SDS011;5546;48.714;8.738;2023-03-05T02:24:32;28.60;;;18.03;;
10985;SDS011;5546;48.714;8.738;2023-03-05T02:26:59;33.97;;;19.17;;
10985;SDS011;5546;48.714;8.738;2023-03-05T02:29:26;30.97;;;17.70;;
10985;SDS011;5546;48.714;8.738;2023-03-05T02:31:54;33.00;;;20.27;;
10985;SDS011;5546;48.714;8.738;2023-03-05T02:34:21;33.90;;;19.07;;
10985;SDS011;5546;48.714;8.738;2023-03-05T02:36:47;34.23;;;19.33;;
10985;SDS011;5546;48.714;8.738;2023-03-05T02:39:14;30.37;;;18.97;;
10985;SDS011;5546;48.714;8.738;2023-03-05T02:41:40;40.03;;;20.30;;
10985;SDS011;5546;48.714;8.738;2023-03-05T02:44:06;30.67;;;17.97;;
10985;SDS011;5546;48.714;8.738;2023-03-05T02:46:32;31.53;;;19.50;;
10985;SDS011;5546;48.714;8.738;2023-03-05T02:48:58;31.37;;;18.30;;
10985;SDS011;5546;48.714;8.738;2023-03-05T02:51:24;35.53;;;18.90;;
10985;SDS011;5546;48.714;8.738;2023-03-05T02:53:50;32.10;;;18.33;;
10985;SDS011;5546;48.714;8.738;2023-03-05T02:56:16;34.43;;;21.43;;
10985;SDS011;5546;48.714;8.738;2023-03-05T02:58:42;37.00;;;20.23;;
10985;SDS011;5546;48.714;8.738;2023-03-05T03:01:08;30.10;;;16.87;;
10985;SDS011;5546;48.714;8.738;2023-03-05T03:03:34;29.73;;;19.07;;
10985;SDS011;5546;48.714;8.738;2023-03-05T03:06:01;34.23;;;18.77;;
10985;SDS011;5546;48.714;8.738;2023-03-05T03:08:27;28.83;;;19.23;;
10985;SDS011;5546;48.714;8.738;2023-03-05T03:10:52;32.87;;;19.10;;
10985;SDS011;5546;48.714;8.738;2023-03-05T03:13:20;32.20;;;18.33;;
10985;SDS011;5546;48.714;8.738;2023-03-05T03:15:46;34.07;;;18.70;;
10985;SDS011;5546;48.714;8.738;2023-03-05T03:18:12;32.77;;;19.03;;
10985;SDS011;5546;48.714;8.738;2023-03-05T03:20:37;30.43;;;18.83;;
10985;SDS011;5546;48.714;8.738;2023-03-05T03:23:03;34.80;;;20.20;;
10985;SDS011;5546;48.714;8.738;2023-03-05T03:25:30;36.23;;;18.93;;
10985;SDS011;5546;48.714;8.738;2023-03-05T03:27:55;30.13;;;18.73;;
10985;SDS011;5546;48.714;8.738;2023-03-05T03:30:21;32.50;;;18.43;;
10985;SDS011;5546;48.714;8.738;2023-03-05T03:32:47;34.73;;;19.33;;
10985;SDS011;5546;48.714;8.738;2023-03-05T03:35:14;34.03;;;18.97;;
10985;SDS011;5546;48.714;8.738;2023-03-05T03:37:40;36.00;;;20.60;;
10985;SDS011;5546;48.714;8.738;2023-03-05T03:40:05;35.80;;;19.10;;
10985;SDS011;5546;48.714;8.738;2023-03-05T03:42:32;32.07;;;18.40;;
10985;SDS011;5546;48.714;8.738;2023-03-05T03:44:57;34.50;;;19.20;;
10985;SDS011;5546;48.714;8.738;2023-03-05T03:47:24;30.77;;;18.17;;
10985;SDS011;5546;48.714;8.738;2023-03-05T03:49:52;36.53;;;18.80;;
10985;SDS011;5546;48.714;8.738;2023-03-05T03:52:18;34.33;;;18.40;;
10985;SDS011;5546;48.714;8.738;2023-03-05T03:54:44;32.97;;;18.93;;
10985;SDS011;5546;48.714;8.738;2023-03-05T03:57:10;35.63;;;18.57;;
10985;SDS011;5546;48.714;8.738;2023-03-05T03:59:36;31.63;;;18.10;;
10985;SDS011;5546;48.714;8.738;2023-03-05T04:02:02;37.40;;;18.67;;
10985;SDS011;5546;48.714;8.738;2023-03-05T04:04:28;32.37;;;17.00;;
10985;SDS011;5546;48.714;8.738;2023-03-05T04:06:54;31.03;;;17.70;;
10985;SDS011;5546;48.714;8.738;2023-03-05T04:09:20;33.40;;;17.63;;
10985;SDS011;5546;48.714;8.738;2023-03-05T04:11:45;31.47;;;17.50;;
10985;SDS011;5546;48.714;8.738;2023-03-05T04:14:11;29.43;;;17.73;;
10985;SDS011;5546;48.714;8.738;2023-03-05T04:16:36;30.47;;;17.17;;
10985;SDS011;5546;48.714;8.738;2023-03-05T04:19:02;33.47;;;19.07;;
10985;SDS011;5546;48.714;8.738;2023-03-05T04:21:28;33.63;;;18.40;;
10985;SDS011;5546;48.714;8.738;2023-03-05T04:23:54;30.60;;;17.87;;
10985;SDS011;5546;48.714;8.738;2023-03-05T04:26:20;27.57;;;16.80;;
10985;SDS011;5546;48.714;8.738;2023-03-05T04:28:46;30.33;;;16.53;;
10985;SDS011;5546;48.714;8.738;2023-03-05T04:31:13;29.13;;;15.60;;
10985;SDS011;5546;48.714;8.738;2023-03-05T04:33:38;28.80;;;16.07;;
10985;SDS011;5546;48.714;8.738;2023-03-05T04:36:04;30.67;;;16.77;;
10985;SDS011;5546;48.714;8.738;2023-03-05T04:38:30;33.13;;;16.83;;
10985;SDS011;5546;48.714;8.738;2023-03-05T04:40:56;28.50;;;16.40;;
10985;SDS011;5546;48.714;8.738;2023-03-05T04:43:21;31.30;;;16.37;;
10985;SDS011;5546;48.714;8.738;2023-03-05T04:45:47;27.77;;;16.00;;
10985;SDS011;5546;48.714;8.738;2023-03-05T04:48:13;32.70;;;18.13;;
10985;SDS011;5546;48.714;8.738;2023-03-05T04:50:38;30.13;;;15.90;;
10985;SDS011;5546;48.714;8.738;2023-03-05T04:53:04;30.40;;;16.47;;
10985;SDS011;5546;48.714;8.738;2023-03-05T04:55:30;31.47;;;16.13;;
10985;SDS011;5546;48.714;8.738;2023-03-05T04:57:56;27.63;;;17.23;;
10985;SDS011;5546;48.714;8.738;2023-03-05T05:00:22;28.77;;;17.33;;
10985;SDS011;5546;48.714;8.738;2023-03-05T05:02:48;28.83;;;17.03;;
10985;SDS011;5546;48.714;8.738;2023-03-05T05:05:16;31.33;;;17.50;;
10985;SDS011;5546;48.714;8.738;2023-03-05T05:07:43;32.50;;;17.03;;
10985;SDS011;5546;48.714;8.738;2023-03-05T05:10:09;37.43;;;19.60;;
10985;SDS011;5546;48.714;8.738;2023-03-05T05:12:36;35.03;;;17.90;;
10985;SDS011;5546;48.714;8.738;2023-03-05T05:15:03;31.57;;;18.13;;
10985;SDS011;5546;48.714;8.738;2023-03-05T05:17:29;35.87;;;18.53;;
10985;SDS011;5546;48.714;8.738;2023-03-05T05:19:56;26.70;;;16.63;;
10985;SDS011;5546;48.714;8.738;2023-03-05T05:22:26;36.57;;;19.47;;
10985;SDS011;5546;48.714;8.738;2023-03-05T05:24:52;38.13;;;20.20;;
10985;SDS011;5546;48.714;8.738;2023-03-05T05:27:18;31.53;;;17.93;;
10985;SDS011;5546;48.714;8.738;2023-03-05T05:29:44;37.13;;;18.60;;
10985;SDS011;5546;48.714;8.738;2023-03-05T05:32:14;28.70;;;16.03;;
10985;SDS011;5546;48.714;8.738;2023-03-05T05:34:43;30.73;;;16.50;;
10985;SDS011;5546;48.714;8.738;2023-03-05T05:37:09;33.17;;;17.80;;
10985;SDS011;5546;48.714;8.738;2023-03-05T05:39:35;36.10;;;18.63;;
10985;SDS011;5546;48.714;8.738;2023-03-05T05:42:00;34.47;;;18.53;;
10985;SDS011;5546;48.714;8.738;2023-03-05T05:44:26;32.87;;;19.13;;
10985;SDS011;5546;48.714;8.738;2023-03-05T05:46:51;35.80;;;19.70;;
10985;SDS011;5546;48.714;8.738;2023-03-05T05:49:17;35.73;;;19.73;;
10985;SDS011;5546;48.714;8.738;2023-03-05T05:51:42;36.60;;;19.07;;
10985;SDS011;5546;48.714;8.738;2023-03-05T05:54:10;32.57;;;17.70;;
10985;SDS011;5546;48.714;8.738;2023-03-05T05:56:37;30.57;;;17.27;;
10985;SDS011;5546;48.714;8.738;2023-03-05T05:59:03;26.50;;;14.87;;
10985;SDS011;5546;48.714;8.738;2023-03-05T06:01:29;30.67;;;16.37;;
10985;SDS011;5546;48.714;8.738;2023-03-05T06:03:56;30.13;;;17.40;;
10985;SDS011;5546;48.714;8.738;2023-03-05T06:06:22;37.63;;;18.83;;
10985;SDS011;5546;48.714;8.738;2023-03-05T06:08:49;32.57;;;18.07;;
10985;SDS011;5546;48.714;8.738;2023-03-05T06:11:15;32.00;;;16.80;;
10985;SDS011;5546;48.714;8.738;2023-03-05T06:13:41;29.70;;;16.03;;
10985;SDS011;5546;48.714;8.738;2023-03-05T06:16:08;32.70;;;17.97;;
10985;SDS011;5546;48.714;8.738;2023-03-05T06:18:36;26.13;;;14.37;;
10985;SDS011;5546;48.714;8.738;2023-03-05T06:21:03;31.40;;;17.23;;
10985;SDS011;5546;48.714;8.738;2023-03-05T06:23:30;27.40;;;14.60;;
10985;SDS011;5546;48.714;8.738;2023-03-05T06:26:00;26.67;;;13.37;;
10985;SDS011;5546;48.714;8.738;2023-03-05T06:28:27;35.67;;;17.57;;
10985;SDS011;5546;48.714;8.738;2023-03-05T06:31:03;27.50;;;15.63;;
10985;SDS011;5546;48.714;8.738;2023-03-05T06:33:30;33.27;;;18.13;;
10985;SDS011;5546;48.714;8.738;2023-03-05T06:35:57;32.47;;;18.47;;
10985;SDS011;5546;48.714;8.738;2023-03-05T06:38:23;30.57;;;15.13;;
10985;SDS011;5546;48.714;8.738;2023-03-05T06:40:48;32.03;;;18.00;;
10985;SDS011;5546;48.714;8.738;2023-03-05T06:43:14;39.93;;;20.87;;
10985;SDS011;5546;48.714;8.738;2023-03-05T06:45:40;34.70;;;19.47;;
10985;SDS011;5546;48.714;8.738;2023-03-05T06:48:05;34.77;;;18.33;;
10985;SDS011;5546;48.714;8.738;2023-03-05T06:50:34;30.27;;;18.43;;
10985;SDS011;5546;48.714;8.738;2023-03-05T06:53:00;33.70;;;18.50;;
10985;SDS011;5546;48.714;8.738;2023-03-05T06:55:26;32.40;;;18.47;;
10985;SDS011;5546;48.714;8.738;2023-03-05T06:57:52;29.50;;;17.00;;
10985;SDS011;5546;48.714;8.738;2023-03-05T07:00:18;31.60;;;18.53;;
10985;SDS011;5546;48.714;8.738;2023-03-05T07:02:44;28.97;;;16.80;;
10985;SDS011;5546;48.714;8.738;2023-03-05T07:05:10;31.73;;;19.03;;
10985;SDS011;5546;48.714;8.738;2023-03-05T07:07:36;31.07;;;18.30;;
10985;SDS011;5546;48.714;8.738;2023-03-05T07:10:02;31.10;;;17.37;;
10985;SDS011;5546;48.714;8.738;2023-03-05T07:12:31;32.80;;;18.37;;
10985;SDS011;5546;48.714;8.738;2023-03-05T07:14:57;29.73;;;17.00;;
10985;SDS011;5546;48.714;8.738;2023-03-05T07:17:23;35.17;;;18.97;;
10985;SDS011;5546;48.714;8.738;2023-03-05T07:19:49;29.87;;;18.70;;
10985;SDS011;5546;48.714;8.738;2023-03-05T07:22:15;34.77;;;18.67;;
10985;SDS011;5546;48.714;8.738;2023-03-05T07:24:40;31.10;;;18.37;;
10985;SDS011;5546;48.714;8.738;2023-03-05T07:27:06;35.43;;;19.30;;
10985;SDS011;5546;48.714;8.738;2023-03-05T07:29:32;30.73;;;17.77;;
10985;SDS011;5546;48.714;8.738;2023-03-05T07:31:57;29.13;;;18.03;;
10985;SDS011;5546;48.714;8.738;2023-03-05T07:34:23;30.33;;;17.50;;
10985;SDS011;5546;48.714;8.738;2023-03-05T07:36:49;29.77;;;18.20;;
10985;SDS011;5546;48.714;8.738;2023-03-05T07:39:15;31.40;;;18.37;;
10985;SDS011;5546;48.714;8.738;2023-03-05T07:41:43;31.23;;;17.80;;
10985;SDS011;5546;48.714;8.738;2023-03-05T07:44:13;30.90;;;18.53;;
10985;SDS011;5546;48.714;8.738;2023-03-05T07:46:40;31.47;;;17.90;;
10985;SDS011;5546;48.714;8.738;2023-03-05T07:49:06;29.73;;;18.67;;
10985;SDS011;5546;48.714;8.738;2023-03-05T07:51:32;32.87;;;18.67;;
10985;SDS011;5546;48.714;8.738;2023-03-05T07:53:59;28.80;;;17.10;;
10985;SDS011;5546;48.714;8.738;2023-03-05T07:58:53;34.20;;;18.63;;
10985;SDS011;5546;48.714;8.738;2023-03-05T08:01:19;28.77;;;17.03;;
10985;SDS011;5546;48.714;8.738;2023-03-05T08:03:45;26.83;;;16.47;;
10985;SDS011;5546;48.714;8.738;2023-03-05T08:06:11;29.27;;;17.37;;
10985;SDS011;5546;48.714;8.738;2023-03-05T08:08:37;28.90;;;17.27;;
10985;SDS011;5546;48.714;8.738;2023-03-05T08:11:12;30.17;;;17.73;;
10985;SDS011;5546;48.714;8.738;2023-03-05T08:13:39;30.97;;;17.70;;
10985;SDS011;5546;48.714;8.738;2023-03-05T08:16:05;34.80;;;18.97;;
10985;SDS011;5546;48.714;8.738;2023-03-05T08:18:34;32.03;;;17.63;;
10985;SDS011;5546;48.714;8.738;2023-03-05T08:21:00;25.70;;;16.70;;
10985;SDS011;5546;48.714;8.738;2023-03-05T08:23:26;30.97;;;18.00;;
10985;SDS011;5546;48.714;8.738;2023-03-05T08:25:52;29.37;;;17.17;;
10985;SDS011;5546;48.714;8.738;2023-03-05T08:28:18;34.90;;;17.87;;
10985;SDS011;5546;48.714;8.738;2023-03-05T08:30:44;27.60;;;16.80;;
10985;SDS011;5546;48.714;8.738;2023-03-05T08:33:11;27.47;;;17.13;;
10985;SDS011;5546;48.714;8.738;2023-03-05T08:35:37;24.23;;;15.73;;
10985;SDS011;5546;48.714;8.738;2023-03-05T08:38:03;28.37;;;16.77;;
10985;SDS011;5546;48.714;8.738;2023-03-05T08:40:29;27.97;;;17.20;;
10985;SDS011;5546;48.714;8.738;2023-03-05T08:42:54;24.60;;;15.63;;
10985;SDS011;5546;48.714;8.738;2023-03-05T08:45:21;27.50;;;15.70;;
10985;SDS011;5546;48.714;8.738;2023-03-05T08:47:47;23.40;;;14.93;;
10985;SDS011;5546;48.714;8.738;2023-03-05T08:50:13;22.33;;;14.93;;
10985;SDS011;5546;48.714;8.738;2023-03-05T08:52:38;24.97;;;15.23;;
10985;SDS011;5546;48.714;8.738;2023-03-05T08:55:04;26.93;;;14.93;;
10985;SDS011;5546;48.714;8.738;2023-03-05T08:57:29;24.17;;;15.07;;
10985;SDS011;5546;48.714;8.738;2023-03-05T08:59:55;24.57;;;14.13;;
10985;SDS011;5546;48.714;8.738;2023-03-05T09:02:20;23.33;;;13.93;;
10985;SDS011;5546;48.714;8.738;2023-03-05T09:04:46;22.57;;;12.63;;
10985;SDS011;5546;48.714;8.738;2023-03-05T09:07:12;21.20;;;12.60;;
10985;SDS011;5546;48.714;8.738;2023-03-05T09:09:38;23.53;;;13.90;;
10985;SDS011;5546;48.714;8.738;2023-03-05T09:12:04;21.37;;;12.60;;
10985;SDS011;5546;48.714;8.738;2023-03-05T09:14:30;24.00;;;14.63;;
10985;SDS011;5546;48.714;8.738;2023-03-05T09:16:56;20.17;;;13.33;;
10985;SDS011;5546;48.714;8.738;2023-03-05T09:19:21;22.47;;;14.20;;
10985;SDS011;5546;48.714;8.738;2023-03-05T09:21:47;19.60;;;11.63;;
10985;SDS011;5546;48.714;8.738;2023-03-05T09:24:13;22.83;;;12.23;;
10985;SDS011;5546;48.714;8.738;2023-03-05T09:26:39;18.67;;;10.90;;
10985;SDS011;5546;48.714;8.738;2023-03-05T09:29:06;16.93;;;10.77;;
10985;SDS011;5546;48.714;8.738;2023-03-05T09:31:33;18.40;;;11.27;;
10985;SDS011;5546;48.714;8.738;2023-03-05T09:33:59;15.20;;;9.73;;
10985;SDS011;5546;48.714;8.738;2023-03-05T09:36:26;18.23;;;11.73;;
10985;SDS011;5546;48.714;8.738;2023-03-05T09:38:53;18.10;;;11.33;;
10985;SDS011;5546;48.714;8.738;2023-03-05T09:44:05;18.17;;;9.83;;
10985;SDS011;5546;48.714;8.738;2023-03-05T09:52:10;18.57;;;10.50;;
10985;SDS011;5546;48.714;8.738;2023-03-05T09:54:42;17.00;;;10.67;;
10985;SDS011;5546;48.714;8.738;2023-03-05T09:57:15;15.50;;;9.83;;
10985;SDS011;5546;48.714;8.738;2023-03-05T09:59:47;15.33;;;9.73;;
10985;SDS011;5546;48.714;8.738;2023-03-05T10:02:27;17.03;;;10.30;;
10985;SDS011;5546;48.714;8.738;2023-03-05T10:05:01;17.33;;;9.47;;
10985;SDS011;5546;48.714;8.738;2023-03-05T10:07:37;15.63;;;9.80;;
10985;SDS011;5546;48.714;8.738;2023-03-05T10:12:39;17.23;;;10.37;;
10985;SDS011;5546;48.714;8.738;2023-03-05T10:15:20;14.53;;;9.90;;
10985;SDS011;5546;48.714;8.738;2023-03-05T10:25:56;15.77;;;10.37;;
10985;SDS011;5546;48.714;8.738;2023-03-05T10:36:52;12.20;;;9.27;;
10985;SDS011;5546;48.714;8.738;2023-03-05T10:39:33;12.80;;;9.10;;
10985;SDS011;5546;48.714;8.738;2023-03-05T10:45:39;20.30;;;11.73;;
10985;SDS011;5546;48.714;8.738;2023-03-05T10:50:52;17.47;;;11.67;;
10985;SDS011;5546;48.714;8.738;2023-03-05T10:53:32;17.27;;;11.37;;
10985;SDS011;5546;48.714;8.738;2023-03-05T10:56:01;17.40;;;10.57;;
10985;SDS011;5546;48.714;8.738;2023-03-05T10:58:28;19.70;;;12.37;;
10985;SDS011;5546;48.714;8.738;2023-03-05T11:06:35;20.17;;;10.70;;
10985;SDS011;5546;48.714;8.738;2023-03-05T11:09:14;24.60;;;11.93;;
10985;SDS011;5546;48.714;8.738;2023-03-05T11:11:40;19.77;;;10.73;;
10985;SDS011;5546;48.714;8.738;2023-03-05T11:14:07;25.57;;;12.67;;
10985;SDS011;5546;48.714;8.738;2023-03-05T11:16:54;21.73;;;11.43;;
10985;SDS011;5546;48.714;8.738;2023-03-05T11:24:31;22.47;;;12.27;;
10985;SDS011;5546;48.714;8.738;2023-03-05T11:26:58;21.30;;;12.27;;
10985;SDS011;5546;48.714;8.738;2023-03-05T11:29:25;24.33;;;12.07;;
10985;SDS011;5546;48.714;8.738;2023-03-05T11:31:53;23.07;;;12.00;;
10985;SDS011;5546;48.714;8.738;2023-03-05T11:39:17;22.87;;;13.70;;
10985;SDS011;5546;48.714;8.738;2023-03-05T11:41:50;23.70;;;13.63;;
10985;SDS011;5546;48.714;8.738;2023-03-05T11:47:16;23.67;;;13.47;;
10985;SDS011;5546;48.714;8.738;2023-03-05T11:52:51;27.43;;;14.57;;
10985;SDS011;5546;48.714;8.738;2023-03-05T11:55:35;26.10;;;14.93;;
10985;SDS011;5546;48.714;8.738;2023-03-05T12:00:52;23.10;;;14.40;;
10985;SDS011;5546;48.714;8.738;2023-03-05T12:03:22;21.50;;;14.07;;
10985;SDS011;5546;48.714;8.738;2023-03-05T12:05:52;27.03;;;16.17;;
10985;SDS011;5546;48.714;8.738;2023-03-05T12:08:23;25.20;;;14.10;;
10985;SDS011;5546;48.714;8.738;2023-03-05T12:10:53;25.80;;;15.40;;
10985;SDS011;5546;48.714;8.738;2023-03-05T12:13:26;26.67;;;15.60;;
10985;SDS011;5546;48.714;8.738;2023-03-05T12:16:13;24.90;;;15.30;;
10985;SDS011;5546;48.714;8.738;2023-03-05T12:18:47;28.53;;;15.13;;
10985;SDS011;5546;48.714;8.738;2023-03-05T12:23:57;26.47;;;14.60;;
10985;SDS011;5546;48.714;8.738;2023-03-05T12:32:05;22.27;;;14.33;;
10985;SDS011;5546;48.714;8.738;2023-03-05T12:34:59;23.43;;;14.87;;
10985;SDS011;5546;48.714;8.738;2023-03-05T12:39:57;21.37;;;13.50;;
10985;SDS011;5546;48.714;8.738;2023-03-05T12:55:53;23.43;;;13.07;;
10985;SDS011;5546;48.714;8.738;2023-03-05T12:58:38;25.43;;;13.43;;
10985;SDS011;5546;48.714;8.738;2023-03-05T13:03:39;22.03;;;12.67;;
10985;SDS011;5546;48.714;8.738;2023-03-05T13:06:33;20.73;;;12.57;;
10985;SDS011;5546;48.714;8.738;2023-03-05T13:09:06;23.43;;;13.33;;
10985;SDS011;5546;48.714;8.738;2023-03-05T13:11:41;25.57;;;12.67;;
10985;SDS011;5546;48.714;8.738;2023-03-05T13:17:00;22.03;;;12.83;;
10985;SDS011;5546;48.714;8.738;2023-03-05T13:19:26;19.03;;;12.60;;
10985;SDS011;5546;48.714;8.738;2023-03-05T13:21:57;22.63;;;12.80;;
10985;SDS011;5546;48.714;8.738;2023-03-05T13:24:25;23.40;;;12.17;;
10985;SDS011;5546;48.714;8.738;2023-03-05T13:26:51;23.87;;;13.00;;
10985;SDS011;5546;48.714;8.738;2023-03-05T13:29:18;21.80;;;13.43;;
10985;SDS011;5546;48.714;8.738;2023-03-05T13:31:54;24.97;;;14.03;;
10985;SDS011;5546;48.714;8.738;2023-03-05T13:34:26;22.23;;;13.00;;
10985;SDS011;5546;48.714;8.738;2023-03-05T13:36:56;21.50;;;12.97;;
10985;SDS011;5546;48.714;8.738;2023-03-05T13:39:23;20.80;;;12.97;;
10985;SDS011;5546;48.714;8.738;2023-03-05T13:41:54;22.87;;;13.27;;
10985;SDS011;5546;48.714;8.738;2023-03-05T13:44:25;27.83;;;13.23;;
10985;SDS011;5546;48.714;8.738;2023-03-05T13:46:51;24.20;;;12.80;;
10985;SDS011;5546;48.714;8.738;2023-03-05T13:49:19;21.43;;;12.77;;
10985;SDS011;5546;48.714;8.738;2023-03-05T13:51:50;21.73;;;12.80;;
10985;SDS011;5546;48.714;8.738;2023-03-05T13:54:18;19.07;;;12.40;;
10985;SDS011;5546;48.714;8.738;2023-03-05T13:56:53;22.37;;;13.67;;
10985;SDS011;5546;48.714;8.738;2023-03-05T13:59:21;20.73;;;12.60;;
10985;SDS011;5546;48.714;8.738;2023-03-05T14:01:53;25.57;;;12.97;;
10985;SDS011;5546;48.714;8.738;2023-03-05T14:04:22;22.27;;;13.73;;
10985;SDS011;5546;48.714;8.738;2023-03-05T14:12:21;22.97;;;13.60;;
10985;SDS011;5546;48.714;8.738;2023-03-05T14:14:59;22.20;;;13.27;;
10985;SDS011;5546;48.714;8.738;2023-03-05T14:20:05;26.47;;;14.07;;
10985;SDS011;5546;48.714;8.738;2023-03-05T14:22:37;20.70;;;12.13;;
10985;SDS011;5546;48.714;8.738;2023-03-05T14:25:05;22.13;;;12.73;;
10985;SDS011;5546;48.714;8.738;2023-03-05T14:27:49;23.37;;;13.27;;
10985;SDS011;5546;48.714;8.738;2023-03-05T14:30:15;22.03;;;12.87;;
10985;SDS011;5546;48.714;8.738;2023-03-05T14:32:43;21.93;;;13.30;;
10985;SDS011;5546;48.714;8.738;2023-03-05T14:35:16;21.33;;;12.87;;
10985;SDS011;5546;48.714;8.738;2023-03-05T14:37:44;21.30;;;11.10;;
10985;SDS011;5546;48.714;8.738;2023-03-05T14:45:21;21.03;;;12.30;;
10985;SDS011;5546;48.714;8.738;2023-03-05T14:47:56;18.90;;;10.40;;
10985;SDS011;5546;48.714;8.738;2023-03-05T14:50:27;19.57;;;11.37;;
10985;SDS011;5546;48.714;8.738;2023-03-05T14:53:01;20.53;;;11.43;;
10985;SDS011;5546;48.714;8.738;2023-03-05T14:55:32;20.93;;;12.37;;
10985;SDS011;5546;48.714;8.738;2023-03-05T14:58:00;21.23;;;11.67;;
10985;SDS011;5546;48.714;8.738;2023-03-05T15:00:28;21.23;;;11.83;;
10985;SDS011;5546;48.714;8.738;2023-03-05T15:02:54;20.03;;;12.40;;
10985;SDS011;5546;48.714;8.738;2023-03-05T15:05:21;21.30;;;11.53;;
10985;SDS011;5546;48.714;8.738;2023-03-05T15:07:47;17.10;;;10.83;;
10985;SDS011;5546;48.714;8.738;2023-03-05T15:10:17;17.10;;;10.30;;
10985;SDS011;5546;48.714;8.738;2023-03-05T15:12:45;19.40;;;12.00;;
10985;SDS011;5546;48.714;8.738;2023-03-05T15:15:12;18.57;;;11.43;;
10985;SDS011;5546;48.714;8.738;2023-03-05T15:17:39;18.97;;;10.33;;
10985;SDS011;5546;48.714;8.738;2023-03-05T15:20:20;15.23;;;10.30;;
10985;SDS011;5546;48.714;8.738;2023-03-05T15:22:47;18.20;;;10.47;;
10985;SDS011;5546;48.714;8.738;2023-03-05T15:25:13;17.63;;;10.67;;
10985;SDS011;5546;48.714;8.738;2023-03-05T15:27:39;19.97;;;10.33;;
10985;SDS011;5546;48.714;8.738;2023-03-05T15:30:06;15.93;;;9.50;;
10985;SDS011;5546;48.714;8.738;2023-03-05T15:32:33;20.37;;;9.50;;
10985;SDS011;5546;48.714;8.738;2023-03-05T15:34:58;15.73;;;9.37;;
10985;SDS011;5546;48.714;8.738;2023-03-05T15:37:24;19.43;;;9.83;;
10985;SDS011;5546;48.714;8.738;2023-03-05T15:39:50;16.80;;;9.20;;
10985;SDS011;5546;48.714;8.738;2023-03-05T15:42:16;16.50;;;10.17;;
10985;SDS011;5546;48.714;8.738;2023-03-05T15:44:42;20.90;;;10.07;;
10985;SDS011;5546;48.714;8.738;2023-03-05T15:47:08;16.60;;;9.67;;
10985;SDS011;5546;48.714;8.738;2023-03-05T15:49:34;16.47;;;9.70;;
10985;SDS011;5546;48.714;8.738;2023-03-05T15:51:59;21.57;;;9.73;;
10985;SDS011;5546;48.714;8.738;2023-03-05T15:54:25;14.97;;;9.30;;
10985;SDS011;5546;48.714;8.738;2023-03-05T15:56:51;19.90;;;10.03;;
10985;SDS011;5546;48.714;8.738;2023-03-05T15:59:17;18.13;;;10.10;;
10985;SDS011;5546;48.714;8.738;2023-03-05T16:01:45;14.87;;;10.10;;
10985;SDS011;5546;48.714;8.738;2023-03-05T16:04:14;14.93;;;9.10;;
10985;SDS011;5546;48.714;8.738;2023-03-05T16:06:40;16.37;;;9.97;;
10985;SDS011;5546;48.714;8.738;2023-03-05T16:09:06;16.83;;;10.47;;
10985;SDS011;5546;48.714;8.738;2023-03-05T16:11:32;15.77;;;9.63;;
10985;SDS011;5546;48.714;8.738;2023-03-05T16:14:02;16.77;;;9.67;;
10985;SDS011;5546;48.714;8.738;2023-03-05T16:16:29;16.13;;;9.57;;
10985;SDS011;5546;48.714;8.738;2023-03-05T16:18:56;20.20;;;9.63;;
10985;SDS011;5546;48.714;8.738;2023-03-05T16:21:22;15.90;;;9.57;;
10985;SDS011;5546;48.714;8.738;2023-03-05T16:23:48;16.53;;;10.10;;